sensor_id;sensor_type;location;lat;lon;timestamp;pressure;altitude;pressure_sealevel;temperature;humidity
83177;BME280;73074;52.006;4.704;2023-11-18T00:00:51;102391.97;;;5.49;97.22
83177;BME280;73074;52.006;4.704;2023-11-18T00:06:15;102393.69;;;5.44;96.66
83177;BME280;73074;52.006;4.704;2023-11-18T00:11:22;102389.28;;;5.42;97.13
83177;BME280;73074;52.006;4.704;2023-11-18T00:16:30;102373.47;;;5.39;97.03
83177;BME280;73074;52.006;4.704;2023-11-18T00:21:35;102376.09;;;5.31;96.68
83177;BME280;73074;52.006;4.704;2023-11-18T00:26:54;102371.69;;;5.27;96.62
83177;BME280;73074;52.006;4.704;2023-11-18T00:31:58;102376.03;;;5.20;96.56
83177;BME280;73074;52.006;4.704;2023-11-18T00:37:01;102385.69;;;5.17;97.07
83177;BME280;73074;52.006;4.704;2023-11-18T00:42:02;102380.41;;;5.11;96.57
83177;BME280;73074;52.006;4.704;2023-11-18T00:47:05;102380.41;;;5.11;97.10
83177;BME280;73074;52.006;4.704;2023-11-18T00:52:11;102395.34;;;5.13;97.36
83177;BME280;73074;52.006;4.704;2023-11-18T00:57:12;102391.84;;;5.17;96.85
83177;BME280;73074;52.006;4.704;2023-11-18T01:02:16;102386.56;;;5.20;97.13
83177;BME280;73074;52.006;4.704;2023-11-18T01:07:17;102398.03;;;5.27;97.46
83177;BME280;73074;52.006;4.704;2023-11-18T01:12:24;102395.41;;;5.30;97.53
83177;BME280;73074;52.006;4.704;2023-11-18T01:17:25;102393.66;;;5.30;97.56
83177;BME280;73074;52.006;4.704;2023-11-18T01:22:28;102384.88;;;5.31;97.13
83177;BME280;73074;52.006;4.704;2023-11-18T01:27:30;102392.78;;;5.33;96.98
83177;BME280;73074;52.006;4.704;2023-11-18T01:32:47;102396.31;;;5.38;97.62
83177;BME280;73074;52.006;4.704;2023-11-18T01:37:48;102417.41;;;5.38;97.25
83177;BME280;73074;52.006;4.704;2023-11-18T01:43:01;102404.22;;;5.41;97.40
83177;BME280;73074;52.006;4.704;2023-11-18T01:48:03;102403.34;;;5.42;96.62
83177;BME280;73074;52.006;4.704;2023-11-18T01:53:07;102410.38;;;5.46;96.77
83177;BME280;73074;52.006;4.704;2023-11-18T01:58:19;102412.16;;;5.49;96.82
83177;BME280;73074;52.006;4.704;2023-11-18T02:03:25;102410.41;;;5.51;96.88
83177;BME280;73074;52.006;4.704;2023-11-18T02:08:41;102400.75;;;5.53;96.95
83177;BME280;73074;52.006;4.704;2023-11-18T02:13:47;102407.78;;;5.55;97.01
83177;BME280;73074;52.006;4.704;2023-11-18T02:18:51;102396.34;;;5.53;97.04
83177;BME280;73074;52.006;4.704;2023-11-18T02:23:57;102407.78;;;5.55;96.89
83177;BME280;73074;52.006;4.704;2023-11-18T02:29:01;102399.00;;;5.53;96.64
83177;BME280;73074;52.006;4.704;2023-11-18T02:34:16;102386.69;;;5.54;97.33
83177;BME280;73074;52.006;4.704;2023-11-18T02:39:39;102367.38;;;5.58;97.42
83177;BME280;73074;52.006;4.704;2023-11-18T02:44:56;102373.50;;;5.60;96.95
83177;BME280;73074;52.006;4.704;2023-11-18T02:49:58;102377.06;;;5.63;97.17
83177;BME280;73074;52.006;4.704;2023-11-18T02:55:00;102365.63;;;5.64;96.98
83177;BME280;73074;52.006;4.704;2023-11-18T03:00:10;102363.00;;;5.68;97.18
83177;BME280;73074;52.006;4.704;2023-11-18T03:05:17;102366.50;;;5.70;97.15
83177;BME280;73074;52.006;4.704;2023-11-18T03:10:23;102361.22;;;5.71;96.80
83177;BME280;73074;52.006;4.704;2023-11-18T03:15:38;102362.09;;;5.72;96.86
83177;BME280;73074;52.006;4.704;2023-11-18T03:20:42;102358.63;;;5.76;96.82
83177;BME280;73074;52.006;4.704;2023-11-18T03:25:46;102336.63;;;5.77;97.23
83177;BME280;73074;52.006;4.704;2023-11-18T03:30:57;102324.34;;;5.77;97.05
83177;BME280;73074;52.006;4.704;2023-11-18T03:36:02;102294.44;;;5.77;96.85
83177;BME280;73074;52.006;4.704;2023-11-18T03:41:23;102298.84;;;5.78;96.68
83177;BME280;73074;52.006;4.704;2023-11-18T03:46:24;102292.69;;;5.79;96.77
83177;BME280;73074;52.006;4.704;2023-11-18T03:51:31;102290.94;;;5.78;97.39
83177;BME280;73074;52.006;4.704;2023-11-18T03:57:04;102277.75;;;5.78;97.24
83177;BME280;73074;52.006;4.704;2023-11-18T04:02:11;102275.09;;;5.81;96.76
83177;BME280;73074;52.006;4.704;2023-11-18T04:07:12;102265.44;;;5.80;96.85
83177;BME280;73074;52.006;4.704;2023-11-18T04:12:23;102254.00;;;5.79;97.27
83177;BME280;73074;52.006;4.704;2023-11-18T04:17:28;102246.09;;;5.82;97.39
83177;BME280;73074;52.006;4.704;2023-11-18T04:22:31;102238.19;;;5.82;97.37
83177;BME280;73074;52.006;4.704;2023-11-18T04:27:57;102225.88;;;5.81;96.71
83177;BME280;73074;52.006;4.704;2023-11-18T04:32:59;102228.50;;;5.84;97.24
83177;BME280;73074;52.006;4.704;2023-11-18T04:38:13;102236.41;;;5.86;97.05
83177;BME280;73074;52.006;4.704;2023-11-18T04:43:15;102214.44;;;5.87;97.20
83177;BME280;73074;52.006;4.704;2023-11-18T04:48:16;102213.59;;;5.88;96.79
83177;BME280;73074;52.006;4.704;2023-11-18T04:53:17;102213.59;;;5.91;97.41
83177;BME280;73074;52.006;4.704;2023-11-18T04:58:18;102207.44;;;5.92;96.65
83177;BME280;73074;52.006;4.704;2023-11-18T05:03:25;102185.44;;;5.95;96.40
83177;BME280;73074;52.006;4.704;2023-11-18T05:08:33;102196.88;;;5.95;96.36
83177;BME280;73074;52.006;4.704;2023-11-18T05:13:34;102182.78;;;5.99;96.17
83177;BME280;73074;52.006;4.704;2023-11-18T05:18:39;102170.50;;;6.03;96.34
83177;BME280;73074;52.006;4.704;2023-11-18T05:23:40;102171.38;;;6.03;96.97
83177;BME280;73074;52.006;4.704;2023-11-18T05:28:41;102170.50;;;6.01;96.87
83177;BME280;73074;52.006;4.704;2023-11-18T05:33:48;102154.66;;;6.00;96.16
83177;BME280;73074;52.006;4.704;2023-11-18T05:38:55;102159.03;;;6.01;96.79
83177;BME280;73074;52.006;4.704;2023-11-18T05:44:04;102152.03;;;6.03;96.27
83177;BME280;73074;52.006;4.704;2023-11-18T05:49:05;102153.78;;;6.02;96.71
83177;BME280;73074;52.006;4.704;2023-11-18T05:54:06;102145.88;;;6.04;96.09
83177;BME280;73074;52.006;4.704;2023-11-18T05:59:07;102131.78;;;6.03;96.08
83177;BME280;73074;52.006;4.704;2023-11-18T06:04:14;102140.59;;;6.04;96.24
83177;BME280;73074;52.006;4.704;2023-11-18T06:09:20;102144.97;;;6.05;96.04
83177;BME280;73074;52.006;4.704;2023-11-18T06:14:28;102126.50;;;6.05;95.97
83177;BME280;73074;52.006;4.704;2023-11-18T06:19:29;102108.94;;;6.04;95.63
83177;BME280;73074;52.006;4.704;2023-11-18T06:24:30;102116.84;;;6.02;95.65
83177;BME280;73074;52.006;4.704;2023-11-18T06:29:31;102123.03;;;6.01;95.48
83177;BME280;73074;52.006;4.704;2023-11-18T06:34:52;102112.47;;;6.01;95.65
83177;BME280;73074;52.006;4.704;2023-11-18T06:40:04;102115.06;;;6.06;96.13
83177;BME280;73074;52.006;4.704;2023-11-18T06:45:08;102107.19;;;6.04;95.93
83177;BME280;73074;52.006;4.704;2023-11-18T06:50:09;102113.34;;;6.03;95.82
83177;BME280;73074;52.006;4.704;2023-11-18T06:55:10;102100.16;;;6.03;95.80
83177;BME280;73074;52.006;4.704;2023-11-18T07:00:14;102108.06;;;6.03;96.28
83177;BME280;73074;52.006;4.704;2023-11-18T07:05:16;102104.50;;;6.07;95.78
83177;BME280;73074;52.006;4.704;2023-11-18T07:15:50;102118.59;;;6.06;95.98
83177;BME280;73074;52.006;4.704;2023-11-18T07:20:52;102124.72;;;6.08;95.48
83177;BME280;73074;52.006;4.704;2023-11-18T07:31:51;102137.91;;;6.11;95.90
83177;BME280;73074;52.006;4.704;2023-11-18T07:36:52;102129.09;;;6.14;95.58
83177;BME280;73074;52.006;4.704;2023-11-18T07:41:53;102130.88;;;6.12;95.43
83177;BME280;73074;52.006;4.704;2023-11-18T07:46:55;102110.63;;;6.12;95.93
83177;BME280;73074;52.006;4.704;2023-11-18T07:51:56;102100.97;;;6.16;96.21
83177;BME280;73074;52.006;4.704;2023-11-18T07:57:30;102098.31;;;6.17;95.43
83177;BME280;73074;52.006;4.704;2023-11-18T08:02:37;102086.88;;;6.20;95.85
83177;BME280;73074;52.006;4.704;2023-11-18T08:07:45;102079.81;;;6.23;95.84
83177;BME280;73074;52.006;4.704;2023-11-18T08:12:46;102080.69;;;6.24;95.14
83177;BME280;73074;52.006;4.704;2023-11-18T08:17:48;102078.91;;;6.26;95.44
83177;BME280;73074;52.006;4.704;2023-11-18T08:22:51;102068.34;;;6.28;95.88
83177;BME280;73074;52.006;4.704;2023-11-18T08:28:02;102072.72;;;6.32;95.00
83177;BME280;73074;52.006;4.704;2023-11-18T08:33:10;102072.69;;;6.35;95.54
83177;BME280;73074;52.006;4.704;2023-11-18T08:38:23;102056.81;;;6.39;95.32
83177;BME280;73074;52.006;4.704;2023-11-18T08:43:31;102045.41;;;6.37;95.83
83177;BME280;73074;52.006;4.704;2023-11-18T08:48:33;102033.09;;;6.36;95.88
83177;BME280;73074;52.006;4.704;2023-11-18T08:53:34;102006.72;;;6.35;96.00
83177;BME280;73074;52.006;4.704;2023-11-18T08:58:36;102003.22;;;6.33;96.12
83177;BME280;73074;52.006;4.704;2023-11-18T09:03:47;101991.81;;;6.31;96.63
83177;BME280;73074;52.006;4.704;2023-11-18T09:08:50;101983.03;;;6.29;96.57
83177;BME280;73074;52.006;4.704;2023-11-18T09:13:56;101966.31;;;6.30;97.30
83177;BME280;73074;52.006;4.704;2023-11-18T09:18:57;101928.44;;;6.35;97.21
83177;BME280;73074;52.006;4.704;2023-11-18T09:23:58;101919.56;;;6.41;97.56
83177;BME280;73074;52.006;4.704;2023-11-18T09:29:22;101937.97;;;6.50;97.79
83177;BME280;73074;52.006;4.704;2023-11-18T09:34:23;101930.88;;;6.58;97.84
83177;BME280;73074;52.006;4.704;2023-11-18T09:39:26;101921.09;;;6.66;97.78
83177;BME280;73074;52.006;4.704;2023-11-18T09:44:43;101928.06;;;6.75;97.44
83177;BME280;73074;52.006;4.704;2023-11-18T09:49:44;101928.00;;;6.79;97.48
83177;BME280;73074;52.006;4.704;2023-11-18T10:00:07;101905.88;;;6.91;97.29
83177;BME280;73074;52.006;4.704;2023-11-18T10:05:10;101889.03;;;7.00;97.50
83177;BME280;73074;52.006;4.704;2023-11-18T10:10:11;101916.28;;;7.05;97.71
83177;BME280;73074;52.006;4.704;2023-11-18T10:15:37;101899.53;;;7.06;97.37
83177;BME280;73074;52.006;4.704;2023-11-18T10:20:48;101911.84;;;7.07;97.51
83177;BME280;73074;52.006;4.704;2023-11-18T10:25:51;101888.06;;;7.10;97.24
83177;BME280;73074;52.006;4.704;2023-11-18T10:30:53;101862.44;;;7.15;97.09
83177;BME280;73074;52.006;4.704;2023-11-18T10:35:54;101857.13;;;7.17;97.61
83177;BME280;73074;52.006;4.704;2023-11-18T10:40:59;101851.81;;;7.18;97.61
83177;BME280;73074;52.006;4.704;2023-11-18T10:46:05;101868.53;;;7.22;97.71
83177;BME280;73074;52.006;4.704;2023-11-18T10:51:23;101850.91;;;7.19;97.92
83177;BME280;73074;52.006;4.704;2023-11-18T10:56:25;101813.03;;;7.19;98.48
83177;BME280;73074;52.006;4.704;2023-11-18T11:01:50;101783.09;;;7.20;98.39
83177;BME280;73074;52.006;4.704;2023-11-18T11:06:51;101745.13;;;7.25;98.49
83177;BME280;73074;52.006;4.704;2023-11-18T11:12:14;101697.50;;;7.28;98.75
83177;BME280;73074;52.006;4.704;2023-11-18T11:17:20;101698.28;;;7.36;98.79
83177;BME280;73074;52.006;4.704;2023-11-18T11:22:29;101703.50;;;7.39;98.89
83177;BME280;73074;52.006;4.704;2023-11-18T11:27:46;101689.38;;;7.40;98.87
83177;BME280;73074;52.006;4.704;2023-11-18T11:33:14;101668.19;;;7.44;98.87
83177;BME280;73074;52.006;4.704;2023-11-18T11:38:17;101614.34;;;7.48;99.17
83177;BME280;73074;52.006;4.704;2023-11-18T11:43:19;101583.44;;;7.53;99.27
83177;BME280;73074;52.006;4.704;2023-11-18T11:48:20;101584.22;;;7.56;99.34
83177;BME280;73074;52.006;4.704;2023-11-18T11:53:29;101582.50;;;7.55;99.12
83177;BME280;73074;52.006;4.704;2023-11-18T11:58:37;101584.22;;;7.56;99.09
83177;BME280;73074;52.006;4.704;2023-11-18T12:03:40;101558.66;;;7.57;99.28
83177;BME280;73074;52.006;4.704;2023-11-18T12:08:56;101550.66;;;7.60;99.12
83177;BME280;73074;52.006;4.704;2023-11-18T12:14:05;101538.31;;;7.62;99.38
83177;BME280;73074;52.006;4.704;2023-11-18T12:19:31;101530.31;;;7.65;99.32
83177;BME280;73074;52.006;4.704;2023-11-18T12:25:28;101576.06;;;7.68;99.42
83177;BME280;73074;52.006;4.704;2023-11-18T12:35:27;101493.22;;;7.68;99.09
83177;BME280;73074;52.006;4.704;2023-11-18T12:40:45;101457.84;;;7.72;99.34
83177;BME280;73074;52.006;4.704;2023-11-18T12:51:44;101455.94;;;7.80;99.77
83177;BME280;73074;52.006;4.704;2023-11-18T12:56:50;101470.03;;;7.81;99.59
83177;BME280;73074;52.006;4.704;2023-11-18T13:01:54;101434.81;;;7.79;99.59
83177;BME280;73074;52.006;4.704;2023-11-18T13:07:04;101415.41;;;7.78;99.88
83177;BME280;73074;52.006;4.704;2023-11-18T13:12:25;101381.00;;;7.80;99.96
83177;BME280;73074;52.006;4.704;2023-11-18T13:17:26;101387.13;;;7.82;99.82
83177;BME280;73074;52.006;4.704;2023-11-18T13:22:30;101370.34;;;7.83;99.81
83177;BME280;73074;52.006;4.704;2023-11-18T13:27:38;101357.03;;;7.86;99.75
83177;BME280;73074;52.006;4.704;2023-11-18T13:32:42;101355.25;;;7.86;100.00
83177;BME280;73074;52.006;4.704;2023-11-18T13:37:47;101343.78;;;7.87;99.65
83177;BME280;73074;52.006;4.704;2023-11-18T13:43:11;101341.13;;;7.89;100.00
83177;BME280;73074;52.006;4.704;2023-11-18T13:48:12;101320.78;;;7.91;100.00
83177;BME280;73074;52.006;4.704;2023-11-18T13:53:13;101322.56;;;7.90;99.88
83177;BME280;73074;52.006;4.704;2023-11-18T13:58:14;101310.97;;;7.94;99.88
83177;BME280;73074;52.006;4.704;2023-11-18T14:03:31;101309.22;;;7.95;100.00
83177;BME280;73074;52.006;4.704;2023-11-18T14:08:38;101275.59;;;7.98;100.00
83177;BME280;73074;52.006;4.704;2023-11-18T14:13:50;101262.31;;;8.00;100.00
83177;BME280;73074;52.006;4.704;2023-11-18T14:18:51;101258.72;;;8.04;100.00
83177;BME280;73074;52.006;4.704;2023-11-18T14:23:52;101241.97;;;8.04;99.91
83177;BME280;73074;52.006;4.704;2023-11-18T14:29:01;101231.34;;;8.05;100.00
83177;BME280;73074;52.006;4.704;2023-11-18T14:34:02;101248.00;;;8.09;99.89
83177;BME280;73074;52.006;4.704;2023-11-18T14:39:13;101204.84;;;8.07;100.00
83177;BME280;73074;52.006;4.704;2023-11-18T14:44:14;101211.81;;;8.09;100.00
83177;BME280;73074;52.006;4.704;2023-11-18T14:49:15;101192.38;;;8.10;100.00
83177;BME280;73074;52.006;4.704;2023-11-18T14:54:22;101209.94;;;8.13;100.00
83177;BME280;73074;52.006;4.704;2023-11-18T14:59:25;101194.06;;;8.13;100.00
83177;BME280;73074;52.006;4.704;2023-11-18T15:04:35;101201.09;;;8.15;100.00
83177;BME280;73074;52.006;4.704;2023-11-18T15:09:49;101176.25;;;8.19;100.00
83177;BME280;73074;52.006;4.704;2023-11-18T15:15:10;101192.13;;;8.19;100.00
83177;BME280;73074;52.006;4.704;2023-11-18T15:20:17;101176.16;;;8.22;100.00
83177;BME280;73074;52.006;4.704;2023-11-18T15:25:19;101157.59;;;8.24;100.00
83177;BME280;73074;52.006;4.704;2023-11-18T15:30:22;101138.94;;;8.28;100.00
83177;BME280;73074;52.006;4.704;2023-11-18T15:35:24;101131.66;;;8.37;100.00
83177;BME280;73074;52.006;4.704;2023-11-18T15:40:41;101127.25;;;8.37;100.00
83177;BME280;73074;52.006;4.704;2023-11-18T15:45:55;101141.28;;;8.39;100.00
83177;BME280;73074;52.006;4.704;2023-11-18T15:50:56;101093.56;;;8.42;100.00
83177;BME280;73074;52.006;4.704;2023-11-18T15:56:03;101102.22;;;8.47;100.00
83177;BME280;73074;52.006;4.704;2023-11-18T16:01:04;101089.81;;;8.49;100.00
83177;BME280;73074;52.006;4.704;2023-11-18T16:06:13;101061.44;;;8.53;100.00
83177;BME280;73074;52.006;4.704;2023-11-18T16:11:29;101052.50;;;8.57;100.00
83177;BME280;73074;52.006;4.704;2023-11-18T16:16:31;101053.16;;;8.64;100.00
83177;BME280;73074;52.006;4.704;2023-11-18T16:21:54;101070.44;;;8.75;100.00
83177;BME280;73074;52.006;4.704;2023-11-18T16:27:00;101069.34;;;8.82;100.00
83177;BME280;73074;52.006;4.704;2023-11-18T16:32:01;101048.75;;;8.91;100.00
83177;BME280;73074;52.006;4.704;2023-11-18T16:37:09;101036.13;;;8.99;100.00
83177;BME280;73074;52.006;4.704;2023-11-18T16:42:10;101054.69;;;8.99;100.00
83177;BME280;73074;52.006;4.704;2023-11-18T16:47:13;101026.97;;;9.09;100.00
83177;BME280;73074;52.006;4.704;2023-11-18T16:52:14;101036.28;;;9.19;100.00
83177;BME280;73074;52.006;4.704;2023-11-18T16:57:21;101015.75;;;9.26;100.00
83177;BME280;73074;52.006;4.704;2023-11-18T17:02:22;101024.22;;;9.37;100.00
83177;BME280;73074;52.006;4.704;2023-11-18T17:07:23;101031.81;;;9.46;100.00
83177;BME280;73074;52.006;4.704;2023-11-18T17:12:30;101038.31;;;9.62;100.00
83177;BME280;73074;52.006;4.704;2023-11-18T17:17:59;101049.56;;;9.69;100.00
83177;BME280;73074;52.006;4.704;2023-11-18T17:23:09;101017.16;;;9.84;100.00
83177;BME280;73074;52.006;4.704;2023-11-18T17:28:20;101024.38;;;10.04;100.00
83177;BME280;73074;52.006;4.704;2023-11-18T17:33:28;101026.50;;;10.18;100.00
83177;BME280;73074;52.006;4.704;2023-11-18T17:38:29;101020.16;;;10.22;100.00
83177;BME280;73074;52.006;4.704;2023-11-18T17:43:58;100995.59;;;10.39;100.00
83177;BME280;73074;52.006;4.704;2023-11-18T17:48:59;100993.69;;;10.42;100.00
83177;BME280;73074;52.006;4.704;2023-11-18T17:54:11;101020.66;;;10.53;100.00
83177;BME280;73074;52.006;4.704;2023-11-18T17:59:18;101011.53;;;10.60;100.00
83177;BME280;73074;52.006;4.704;2023-11-18T18:04:19;101012.47;;;10.59;100.00
83177;BME280;73074;52.006;4.704;2023-11-18T18:15:00;100985.41;;;10.72;100.00
83177;BME280;73074;52.006;4.704;2023-11-18T18:20:13;100985.91;;;10.80;100.00
83177;BME280;73074;52.006;4.704;2023-11-18T18:25:14;101002.56;;;10.85;100.00
83177;BME280;73074;52.006;4.704;2023-11-18T18:30:26;101007.81;;;10.86;100.00
83177;BME280;73074;52.006;4.704;2023-11-18T18:35:42;101005.44;;;11.01;100.00
83177;BME280;73074;52.006;4.704;2023-11-18T18:40:43;101023.25;;;10.99;100.00
83177;BME280;73074;52.006;4.704;2023-11-18T18:45:50;101017.84;;;11.00;100.00
83177;BME280;73074;52.006;4.704;2023-11-18T18:50:51;101019.50;;;11.03;100.00
83177;BME280;73074;52.006;4.704;2023-11-18T18:55:54;101016.63;;;11.09;100.00
83177;BME280;73074;52.006;4.704;2023-11-18T19:00:55;101022.38;;;11.18;100.00
83177;BME280;73074;52.006;4.704;2023-11-18T19:06:13;101008.91;;;11.23;100.00
83177;BME280;73074;52.006;4.704;2023-11-18T19:11:38;100994.69;;;11.24;100.00
83177;BME280;73074;52.006;4.704;2023-11-18T19:16:40;100994.59;;;11.25;100.00
83177;BME280;73074;52.006;4.704;2023-11-18T19:22:06;100988.81;;;11.36;100.00
83177;BME280;73074;52.006;4.704;2023-11-18T19:27:39;100994.50;;;11.47;100.00
83177;BME280;73074;52.006;4.704;2023-11-18T19:32:53;100989.00;;;11.52;100.00
83177;BME280;73074;52.006;4.704;2023-11-18T19:38:08;100986.84;;;11.60;100.00
83177;BME280;73074;52.006;4.704;2023-11-18T19:43:10;100978.66;;;11.65;100.00
83177;BME280;73074;52.006;4.704;2023-11-18T19:48:22;100966.84;;;11.70;100.00
83177;BME280;73074;52.006;4.704;2023-11-18T19:53:34;100948.81;;;11.77;100.00
83177;BME280;73074;52.006;4.704;2023-11-18T19:59:01;100943.38;;;11.80;100.00
83177;BME280;73074;52.006;4.704;2023-11-18T20:04:02;100950.28;;;11.84;100.00
83177;BME280;73074;52.006;4.704;2023-11-18T20:09:04;100937.91;;;11.83;100.00
83177;BME280;73074;52.006;4.704;2023-11-18T20:14:04;100940.31;;;11.89;100.00
83177;BME280;73074;52.006;4.704;2023-11-18T20:19:06;100954.94;;;11.98;100.00
83177;BME280;73074;52.006;4.704;2023-11-18T20:24:07;100975.53;;;11.94;100.00
83177;BME280;73074;52.006;4.704;2023-11-18T20:29:08;100955.66;;;12.01;100.00
83177;BME280;73074;52.006;4.704;2023-11-18T20:34:15;100971.22;;;12.10;100.00
83177;BME280;73074;52.006;4.704;2023-11-18T20:39:16;100960.28;;;12.17;100.00
83177;BME280;73074;52.006;4.704;2023-11-18T20:44:41;100959.19;;;12.21;100.00
83177;BME280;73074;52.006;4.704;2023-11-18T20:49:42;100957.94;;;12.28;100.00
83177;BME280;73074;52.006;4.704;2023-11-18T20:54:45;100957.16;;;12.26;100.00
83177;BME280;73074;52.006;4.704;2023-11-18T20:59:46;100962.47;;;12.26;100.00
83177;BME280;73074;52.006;4.704;2023-11-18T21:04:55;100907.97;;;12.33;100.00
83177;BME280;73074;52.006;4.704;2023-11-18T21:09:56;100894.94;;;12.27;100.00
83177;BME280;73074;52.006;4.704;2023-11-18T21:15:00;100937.28;;;12.33;100.00
83177;BME280;73074;52.006;4.704;2023-11-18T21:20:09;100934.78;;;12.30;100.00
83177;BME280;73074;52.006;4.704;2023-11-18T21:25:13;100926.38;;;12.37;100.00
83177;BME280;73074;52.006;4.704;2023-11-18T21:30:16;100903.19;;;12.39;100.00
83177;BME280;73074;52.006;4.704;2023-11-18T21:35:17;100913.56;;;12.46;100.00
83177;BME280;73074;52.006;4.704;2023-11-18T21:40:18;100899.84;;;12.53;100.00
83177;BME280;73074;52.006;4.704;2023-11-18T21:45:22;100899.63;;;12.58;100.00
83177;BME280;73074;52.006;4.704;2023-11-18T21:50:25;100902.22;;;12.59;100.00
83177;BME280;73074;52.006;4.704;2023-11-18T21:55:29;100909.88;;;12.65;100.00
83177;BME280;73074;52.006;4.704;2023-11-18T22:00:44;100908.06;;;12.66;100.00
83177;BME280;73074;52.006;4.704;2023-11-18T22:05:58;100897.28;;;12.69;100.00
83177;BME280;73074;52.006;4.704;2023-11-18T22:10:59;100895.31;;;12.72;100.00
83177;BME280;73074;52.006;4.704;2023-11-18T22:16:00;100885.59;;;12.71;100.00
83177;BME280;73074;52.006;4.704;2023-11-18T22:21:05;100897.34;;;12.85;100.00
83177;BME280;73074;52.006;4.704;2023-11-18T22:26:08;100883.28;;;12.81;100.00
83177;BME280;73074;52.006;4.704;2023-11-18T22:31:16;100883.06;;;12.86;100.00
83177;BME280;73074;52.006;4.704;2023-11-18T22:36:32;100877.09;;;12.98;100.00
83177;BME280;73074;52.006;4.704;2023-11-18T22:41:33;100882.34;;;12.99;100.00
83177;BME280;73074;52.006;4.704;2023-11-18T22:46:34;100884.44;;;13.10;100.00
83177;BME280;73074;52.006;4.704;2023-11-18T22:52:00;100894.66;;;13.02;100.00
83177;BME280;73074;52.006;4.704;2023-11-18T22:57:10;100893.44;;;13.08;100.00
83177;BME280;73074;52.006;4.704;2023-11-18T23:02:12;100881.84;;;13.09;100.00
83177;BME280;73074;52.006;4.704;2023-11-18T23:07:35;100885.16;;;13.14;100.00
83177;BME280;73074;52.006;4.704;2023-11-18T23:12:41;100881.34;;;13.18;100.00
83177;BME280;73074;52.006;4.704;2023-11-18T23:17:53;100889.16;;;13.22;100.00
83177;BME280;73074;52.006;4.704;2023-11-18T23:22:59;100892.75;;;13.21;100.00
83177;BME280;73074;52.006;4.704;2023-11-18T23:28:06;100873.50;;;13.32;100.00
83177;BME280;73074;52.006;4.704;2023-11-18T23:33:07;100880.81;;;13.28;100.00
83177;BME280;73074;52.006;4.704;2023-11-18T23:38:19;100882.72;;;13.26;100.00
83177;BME280;73074;52.006;4.704;2023-11-18T23:43:20;100859.13;;;13.35;100.00
83177;BME280;73074;52.006;4.704;2023-11-18T23:48:22;100845.78;;;13.35;100.00
83177;BME280;73074;52.006;4.704;2023-11-18T23:53:38;100838.72;;;13.34;100.00
83177;BME280;73074;52.006;4.704;2023-11-18T23:58:51;100823.75;;;13.31;100.00
